createdAt,value
2023-02-06T00:01:36.438Z,30.88
2023-02-06T00:04:05.207Z,36.47
2023-02-06T00:06:35.037Z,45.65
2023-02-06T00:09:03.778Z,31.80
2023-02-06T00:11:32.025Z,31.15
2023-02-06T00:14:00.349Z,26.77
2023-02-06T00:16:30.310Z,37.78
2023-02-06T00:19:00.130Z,33.90
2023-02-06T00:21:30.601Z,42.30
2023-02-06T00:24:02.057Z,43.42
2023-02-06T00:26:31.370Z,36.65
2023-02-06T00:29:00.158Z,35.15
2023-02-06T00:31:28.748Z,31.40
2023-02-06T00:33:56.998Z,37.63
2023-02-06T00:36:25.156Z,30.70
2023-02-06T00:38:53.413Z,23.15
2023-02-06T00:41:23.219Z,35.70
2023-02-06T00:43:51.420Z,24.05
2023-02-06T00:46:19.639Z,29.48
2023-02-06T00:48:47.913Z,38.17
2023-02-06T00:51:16.270Z,38.45
2023-02-06T00:53:44.593Z,45.45
2023-02-06T00:56:12.769Z,47.33
2023-02-06T00:58:42.417Z,38.83
2023-02-06T01:01:10.743Z,34.55
2023-02-06T01:03:38.848Z,34.38
2023-02-06T01:06:07.308Z,30.23
2023-02-06T01:08:35.494Z,42.97
2023-02-06T01:11:09.832Z,40.38
2023-02-06T01:13:38.345Z,35.97
2023-02-06T01:16:10.876Z,28.42
2023-02-06T01:18:39.973Z,25.48
2023-02-06T01:21:10.334Z,42.25
2023-02-06T01:23:39.533Z,34.20
2023-02-06T01:26:08.365Z,23.92
2023-02-06T01:28:37.965Z,26.88
2023-02-06T01:31:13.158Z,28.13
2023-02-06T01:33:41.996Z,46.25
2023-02-06T01:36:10.378Z,30.20
2023-02-06T01:38:39.108Z,45.60
2023-02-06T01:41:08.460Z,42.90
2023-02-06T01:43:41.235Z,22.75
2023-02-06T01:46:10.176Z,19.65
2023-02-06T01:48:42.662Z,24.63
2023-02-06T01:51:15.074Z,34.30
2023-02-06T01:53:46.668Z,19.25
2023-02-06T01:56:19.422Z,30.45
2023-02-06T01:58:52.945Z,33.30
2023-02-06T02:01:22.402Z,29.77
2023-02-06T02:04:00.912Z,19.60
2023-02-06T02:06:29.616Z,19.90
2023-02-06T02:08:58.590Z,23.15
2023-02-06T02:11:33.226Z,19.15
2023-02-06T02:14:02.596Z,15.63
2023-02-06T02:16:43.719Z,16.73
2023-02-06T02:19:39.941Z,16.55
2023-02-06T02:22:41.343Z,21.38
2023-02-06T02:25:23.581Z,12.63
2023-02-06T02:28:18.434Z,21.23
2023-02-06T02:31:10.127Z,14.15
2023-02-06T02:34:11.963Z,14.27
2023-02-06T02:36:46.433Z,13.55
2023-02-06T02:39:20.748Z,19.05
2023-02-06T02:41:57.755Z,18.35
2023-02-06T02:44:32.520Z,18.98
2023-02-06T02:47:06.328Z,19.67
2023-02-06T02:49:36.365Z,20.23
2023-02-06T02:52:06.620Z,28.95
2023-02-06T02:54:34.787Z,26.45
2023-02-06T02:57:07.218Z,24.70
2023-02-06T02:59:38.625Z,21.83
2023-02-06T03:02:11.574Z,31.73
2023-02-06T03:04:43.622Z,30.75
2023-02-06T03:07:21.611Z,16.63
2023-02-06T03:09:56.696Z,18.67
2023-02-06T03:12:35.799Z,24.67
2023-02-06T03:15:10.796Z,11.85
2023-02-06T03:17:45.290Z,18.38
2023-02-06T03:20:15.006Z,16.03
2023-02-06T03:22:49.082Z,16.92
2023-02-06T03:25:24.669Z,31.80
2023-02-06T03:27:55.741Z,11.48
2023-02-06T03:30:26.164Z,14.63
2023-02-06T03:32:57.983Z,13.77
2023-02-06T03:35:31.673Z,21.55
2023-02-06T03:38:01.696Z,16.92
2023-02-06T03:40:30.847Z,13.23
2023-02-06T03:43:01.436Z,15.75
2023-02-06T03:45:31.429Z,12.85
2023-02-06T03:48:02.781Z,11.45
2023-02-06T03:50:33.541Z,24.00
2023-02-06T03:53:05.304Z,13.80
2023-02-06T03:55:34.164Z,16.85
2023-02-06T03:58:05.165Z,16.33
2023-02-06T04:00:33.914Z,19.25
2023-02-06T04:03:02.904Z,14.23
2023-02-06T04:05:31.468Z,18.38
2023-02-06T04:07:59.866Z,13.50
2023-02-06T04:10:29.799Z,14.35
2023-02-06T04:12:58.423Z,13.02
2023-02-06T04:15:27.252Z,12.30
2023-02-06T04:18:01.270Z,15.30
2023-02-06T04:20:30.849Z,14.13
2023-02-06T04:22:59.618Z,12.65
2023-02-06T04:25:29.396Z,20.80
2023-02-06T04:27:57.904Z,13.35
2023-02-06T04:30:26.395Z,17.00
2023-02-06T04:32:54.977Z,19.30
2023-02-06T04:35:23.459Z,23.88
2023-02-06T04:37:51.918Z,20.35
2023-02-06T04:40:20.624Z,27.75
2023-02-06T04:42:50.601Z,18.33
2023-02-06T04:45:19.170Z,11.30
2023-02-06T04:47:49.549Z,12.07
2023-02-06T04:50:18.136Z,16.98
2023-02-06T04:52:46.754Z,12.32
2023-02-06T04:55:15.237Z,11.73
2023-02-06T04:57:43.681Z,13.57
2023-02-06T05:00:15.011Z,16.45
2023-02-06T05:02:43.602Z,20.63
2023-02-06T05:05:12.267Z,14.73
2023-02-06T05:07:40.785Z,17.10
2023-02-06T05:10:10.259Z,17.70
2023-02-06T05:12:38.844Z,17.70
2023-02-06T05:15:07.902Z,25.90
2023-02-06T05:17:37.989Z,23.40
2023-02-06T05:20:07.020Z,32.40
2023-02-06T05:22:35.560Z,23.67
2023-02-06T05:25:04.097Z,22.60
2023-02-06T05:27:32.538Z,27.30
2023-02-06T05:30:01.064Z,22.70
2023-02-06T05:32:29.598Z,17.73
2023-02-06T05:34:59.496Z,17.88
2023-02-06T05:37:28.527Z,17.20
2023-02-06T05:39:59.867Z,37.13
2023-02-06T05:42:28.624Z,8.60
2023-02-06T05:44:57.071Z,31.60
2023-02-06T05:47:26.054Z,33.97
2023-02-06T05:49:54.654Z,27.63
2023-02-06T05:52:24.537Z,19.35
2023-02-06T05:54:53.018Z,30.60
2023-02-06T05:57:21.526Z,25.17
2023-02-06T05:59:49.985Z,33.90
2023-02-06T06:02:18.893Z,25.75
2023-02-06T06:04:47.616Z,30.50
2023-02-06T06:07:16.134Z,47.55
2023-02-06T06:09:46.269Z,39.70
2023-02-06T06:12:14.690Z,36.95
2023-02-06T06:14:42.912Z,44.60
2023-02-06T06:17:11.199Z,31.15
2023-02-06T06:19:39.457Z,41.70
2023-02-06T06:22:07.793Z,42.50
2023-02-06T06:24:36.388Z,22.10
2023-02-06T06:27:08.301Z,19.60
2023-02-06T06:29:36.478Z,30.80
2023-02-06T06:32:04.729Z,24.05
2023-02-06T06:34:33.301Z,39.75
2023-02-06T06:37:04.854Z,85.88
2023-02-06T06:39:33.214Z,15.50
2023-02-06T06:42:01.408Z,12.90
2023-02-06T06:44:31.088Z,18.55
2023-02-06T06:46:59.732Z,19.25
2023-02-06T06:49:29.132Z,16.65
2023-02-06T06:51:57.402Z,16.95
2023-02-06T06:54:25.702Z,26.95
2023-02-06T06:56:53.971Z,49.97
2023-02-06T06:59:22.164Z,13.10
2023-02-06T07:01:52.637Z,23.02
2023-02-06T07:04:21.365Z,20.13
2023-02-06T07:06:49.798Z,16.65
2023-02-06T07:09:18.155Z,18.33
2023-02-06T07:11:46.379Z,20.02
2023-02-06T07:14:14.669Z,21.55
2023-02-06T07:16:43.075Z,12.00
2023-02-06T07:19:12.846Z,11.90
2023-02-06T07:21:41.093Z,14.30
2023-02-06T07:24:09.643Z,20.65
2023-02-06T07:26:37.874Z,17.83
2023-02-06T07:29:06.558Z,47.80
2023-02-06T07:31:35.178Z,15.13
2023-02-06T07:34:03.471Z,12.13
2023-02-06T07:36:33.190Z,18.40
2023-02-06T07:39:03.767Z,19.55
2023-02-06T07:41:32.084Z,37.13
2023-02-06T07:44:00.724Z,37.38
2023-02-06T07:46:29.428Z,16.23
2023-02-06T07:48:57.741Z,57.70
2023-02-06T07:51:26.014Z,26.60
2023-02-06T07:53:55.875Z,19.35
2023-02-06T07:56:25.270Z,14.43
2023-02-06T07:58:54.779Z,23.45
2023-02-06T08:01:23.989Z,57.60
2023-02-06T08:03:53.485Z,50.00
2023-02-06T08:06:24.468Z,12.18
2023-02-06T08:08:55.352Z,69.05
2023-02-06T08:11:28.248Z,106.18
2023-02-06T08:13:56.509Z,24.00
2023-02-06T08:16:25.601Z,17.95
2023-02-06T08:18:55.257Z,34.38
2023-02-06T08:21:26.253Z,46.90
2023-02-06T08:23:59.063Z,41.70
2023-02-06T08:26:30.477Z,30.40
2023-02-06T08:29:01.795Z,97.45
2023-02-06T08:31:32.463Z,65.85
2023-02-06T08:34:01.296Z,36.35
2023-02-06T08:36:31.620Z,78.75
2023-02-06T08:39:00.585Z,78.22
2023-02-06T08:41:32.041Z,74.28
2023-02-06T08:44:01.870Z,87.95
2023-02-06T08:46:32.845Z,103.75
2023-02-06T08:49:02.428Z,62.55
2023-02-06T08:51:30.677Z,63.28
2023-02-06T08:54:01.873Z,144.20
2023-02-06T08:56:32.238Z,65.10
2023-02-06T08:59:01.513Z,52.08
2023-02-06T09:01:30.989Z,120.00
2023-02-06T09:04:00.293Z,78.97
2023-02-06T09:06:29.436Z,55.25
2023-02-06T09:08:58.960Z,33.72
2023-02-06T09:11:28.108Z,37.53
2023-02-06T09:13:58.832Z,49.70
2023-02-06T09:16:28.360Z,73.65
2023-02-06T09:19:01.722Z,75.50
2023-02-06T09:21:31.273Z,50.50
2023-02-06T09:24:00.428Z,43.28
2023-02-06T09:26:29.562Z,33.17
2023-02-06T09:29:00.497Z,50.10
2023-02-06T09:31:30.852Z,28.45
2023-02-06T09:34:00.750Z,41.03
2023-02-06T09:36:30.509Z,40.83
2023-02-06T09:38:59.521Z,36.95
2023-02-06T09:41:31.683Z,58.45
2023-02-06T09:44:05.431Z,47.22
2023-02-06T09:46:35.305Z,25.77
2023-02-06T09:49:04.898Z,32.90
2023-02-06T09:51:40.209Z,36.20
2023-02-06T09:54:17.823Z,32.30
2023-02-06T09:56:49.623Z,30.50
2023-02-06T09:59:25.163Z,35.67
2023-02-06T10:01:59.788Z,27.10
2023-02-06T10:04:42.444Z,30.27
2023-02-06T10:07:18.133Z,33.35
2023-02-06T10:09:50.946Z,32.13
2023-02-06T10:12:21.640Z,30.40
2023-02-06T10:14:52.694Z,36.50
2023-02-06T10:17:22.845Z,37.67
2023-02-06T10:19:53.184Z,39.50
2023-02-06T10:22:27.373Z,47.08
2023-02-06T10:25:02.816Z,35.67
2023-02-06T10:27:34.816Z,35.35
2023-02-06T10:30:05.933Z,42.38
2023-02-06T10:32:43.245Z,40.45
2023-02-06T10:35:24.005Z,42.60
2023-02-06T10:38:20.369Z,48.90
2023-02-06T10:43:30.033Z,28.55
2023-02-06T10:46:14.281Z,40.30
2023-02-06T10:48:47.773Z,43.67
2023-02-06T10:51:21.479Z,39.47
2023-02-06T10:53:52.897Z,36.75
2023-02-06T10:56:27.150Z,40.65
2023-02-06T10:59:00.030Z,36.13
2023-02-06T11:01:33.750Z,37.42
2023-02-06T11:04:06.704Z,30.40
2023-02-06T11:06:35.544Z,27.40
2023-02-06T11:09:05.326Z,30.73
2023-02-06T11:11:34.553Z,31.73
2023-02-06T11:14:06.553Z,34.00
2023-02-06T11:16:38.732Z,32.55
2023-02-06T11:19:17.921Z,34.13
2023-02-06T11:21:51.740Z,29.40
2023-02-06T11:24:21.297Z,37.85
2023-02-06T11:26:52.340Z,28.83
2023-02-06T11:29:22.339Z,33.85
2023-02-06T11:31:53.730Z,39.28
2023-02-06T11:34:25.711Z,47.63
2023-02-06T11:36:56.091Z,35.58
2023-02-06T11:39:30.358Z,37.42
2023-02-06T11:42:04.069Z,38.05
2023-02-06T11:44:39.518Z,43.40
2023-02-06T11:49:58.839Z,52.35
2023-02-06T11:52:31.699Z,38.17
2023-02-06T11:55:02.875Z,57.05
2023-02-06T11:57:34.313Z,48.05
2023-02-06T12:00:06.800Z,48.22
2023-02-06T12:02:38.763Z,47.05
2023-02-06T12:05:15.678Z,46.83
2023-02-06T12:07:47.144Z,45.75
2023-02-06T12:10:17.456Z,33.78
2023-02-06T12:12:49.664Z,34.60
2023-02-06T12:15:44.854Z,34.25
2023-02-06T12:18:16.984Z,30.88
2023-02-06T12:20:52.343Z,37.13
2023-02-06T12:25:55.586Z,31.63
2023-02-06T12:28:27.778Z,33.65
2023-02-06T12:30:58.903Z,32.70
2023-02-06T12:33:36.253Z,33.15
2023-02-06T12:36:12.002Z,30.50
2023-02-06T12:38:46.923Z,32.78
2023-02-06T12:41:41.700Z,33.13
2023-02-06T12:44:21.760Z,30.83
2023-02-06T12:46:56.333Z,50.47
2023-02-06T12:49:31.921Z,36.63
2023-02-06T12:52:06.064Z,34.75
2023-02-06T12:54:42.572Z,50.10
2023-02-06T12:57:17.272Z,51.90
2023-02-06T13:00:13.999Z,40.75
2023-02-06T13:03:06.712Z,40.72
2023-02-06T13:05:39.824Z,39.05
2023-02-06T13:08:12.560Z,40.85
2023-02-06T13:10:41.699Z,48.28
2023-02-06T13:13:27.495Z,51.83
2023-02-06T13:15:57.708Z,42.53
2023-02-06T13:19:03.066Z,30.90
2023-02-06T13:21:35.544Z,42.75
2023-02-06T13:24:19.344Z,25.88
2023-02-06T13:27:12.341Z,30.92
2023-02-06T13:29:42.839Z,32.50
2023-02-06T13:32:46.839Z,21.65
2023-02-06T13:35:26.784Z,27.23
2023-02-06T13:38:28.476Z,26.98
2023-02-06T13:41:32.249Z,28.40
2023-02-06T13:44:05.331Z,29.60
2023-02-06T13:47:08.737Z,25.00
2023-02-06T13:50:24.027Z,19.08
2023-02-06T13:53:07.960Z,21.20
2023-02-06T13:55:58.051Z,26.13
2023-02-06T13:58:40.577Z,22.95
2023-02-06T14:01:15.305Z,20.77
2023-02-06T14:03:49.818Z,24.20
2023-02-06T14:06:31.438Z,22.50
2023-02-06T14:09:08.915Z,20.08
2023-02-06T14:12:12.697Z,31.58
2023-02-06T14:14:53.259Z,25.95
2023-02-06T14:17:34.678Z,13.82
2023-02-06T14:20:12.288Z,19.90
2023-02-06T14:22:50.559Z,19.27
2023-02-06T14:25:33.583Z,18.13
2023-02-06T14:28:13.671Z,16.90
2023-02-06T14:30:51.804Z,16.50
2023-02-06T14:33:47.697Z,22.75
2023-02-06T14:36:33.760Z,26.58
2023-02-06T14:39:40.707Z,25.90
2023-02-06T14:42:13.934Z,16.77
2023-02-06T14:44:45.425Z,21.13
2023-02-06T14:47:19.495Z,18.40
2023-02-06T14:49:48.957Z,14.35
2023-02-06T14:52:21.115Z,22.73
2023-02-06T14:54:49.749Z,12.52
2023-02-06T14:57:22.496Z,19.95
2023-02-06T14:59:58.562Z,12.45
2023-02-06T15:02:31.483Z,14.73
2023-02-06T15:05:02.015Z,9.93
2023-02-06T15:07:33.447Z,19.25
2023-02-06T15:10:06.873Z,21.42
2023-02-06T15:12:35.999Z,17.35
2023-02-06T15:15:17.692Z,19.52
2023-02-06T15:17:57.646Z,14.50
2023-02-06T15:20:32.497Z,19.65
2023-02-06T15:23:17.294Z,22.50
2023-02-06T15:26:03.516Z,27.52
2023-02-06T15:28:34.355Z,20.80
2023-02-06T15:31:04.304Z,16.33
2023-02-06T15:33:36.036Z,19.92
2023-02-06T15:36:05.544Z,18.67
2023-02-06T15:38:35.193Z,20.85
2023-02-06T15:41:06.462Z,25.67
2023-02-06T15:43:35.638Z,17.73
2023-02-06T15:46:07.203Z,23.77
2023-02-06T15:48:40.983Z,20.13
2023-02-06T15:51:24.759Z,21.10
2023-02-06T15:53:56.045Z,16.80
2023-02-06T15:56:26.694Z,25.45
2023-02-06T15:59:03.271Z,22.63
2023-02-06T16:01:37.265Z,16.08
2023-02-06T16:04:08.005Z,21.38
2023-02-06T16:06:37.509Z,23.35
2023-02-06T16:09:08.856Z,23.02
2023-02-06T16:11:47.984Z,17.42
2023-02-06T16:14:22.811Z,22.75
2023-02-06T16:17:01.054Z,22.38
2023-02-06T16:19:39.250Z,22.25
2023-02-06T16:22:16.333Z,20.23
2023-02-06T16:24:44.884Z,27.13
2023-02-06T16:27:19.468Z,22.25
2023-02-06T16:29:51.195Z,16.93
2023-02-06T16:32:24.469Z,17.08
2023-02-06T16:34:53.299Z,23.60
2023-02-06T16:37:23.845Z,27.05
2023-02-06T16:39:52.502Z,27.58
2023-02-06T16:42:23.096Z,23.25
2023-02-06T16:44:53.852Z,18.35
2023-02-06T16:47:24.329Z,17.65
2023-02-06T16:49:53.015Z,24.75
2023-02-06T16:52:25.893Z,22.10
2023-02-06T16:54:55.887Z,19.83
2023-02-06T16:57:29.327Z,21.42
2023-02-06T16:59:58.340Z,20.92
2023-02-06T17:02:29.236Z,20.75
2023-02-06T17:04:57.896Z,17.20
2023-02-06T17:07:28.590Z,15.63
2023-02-06T17:09:58.010Z,18.77
2023-02-06T17:12:26.573Z,17.92
2023-02-06T17:14:54.974Z,18.73
2023-02-06T17:17:24.440Z,21.08
2023-02-06T17:19:54.371Z,22.77
2023-02-06T17:22:22.812Z,16.35
2023-02-06T17:24:51.132Z,21.33
2023-02-06T17:27:21.798Z,19.52
2023-02-06T17:29:50.470Z,21.77
2023-02-06T17:32:22.457Z,17.55
2023-02-06T17:34:54.452Z,17.98
2023-02-06T17:37:22.803Z,16.70
2023-02-06T17:39:52.373Z,25.38
2023-02-06T17:42:22.062Z,20.55
2023-02-06T17:44:50.777Z,21.08
2023-02-06T17:47:19.430Z,24.42
2023-02-06T17:49:48.007Z,21.73
2023-02-06T17:52:18.314Z,19.15
2023-02-06T17:54:46.569Z,16.77
2023-02-06T17:57:15.098Z,20.35
2023-02-06T17:59:43.376Z,20.92
2023-02-06T18:02:14.405Z,18.73
2023-02-06T18:04:42.709Z,18.33
2023-02-06T18:07:11.076Z,31.48
2023-02-06T18:09:42.168Z,15.18
2023-02-06T18:12:10.677Z,23.13
2023-02-06T18:14:39.889Z,22.08
2023-02-06T18:17:09.305Z,23.77
2023-02-06T18:19:42.218Z,22.33
2023-02-06T18:22:11.964Z,22.67
2023-02-06T18:24:42.218Z,19.35
2023-02-06T18:27:11.280Z,17.95
2023-02-06T18:29:49.463Z,23.40
2023-02-06T18:32:18.965Z,15.55
2023-02-06T18:34:47.805Z,19.75
2023-02-06T18:37:16.268Z,14.80
2023-02-06T18:39:45.958Z,22.63
2023-02-06T18:42:31.573Z,17.63
2023-02-06T18:44:59.921Z,26.58
2023-02-06T18:47:28.201Z,27.42
2023-02-06T18:49:56.419Z,15.38
2023-02-06T18:52:24.767Z,14.77
2023-02-06T18:54:54.317Z,19.65
2023-02-06T18:57:22.534Z,20.85
2023-02-06T18:59:50.742Z,20.13
2023-02-06T19:02:19.291Z,14.90
2023-02-06T19:04:47.561Z,16.38
2023-02-06T19:07:16.718Z,24.25
2023-02-06T19:09:45.399Z,18.02
2023-02-06T19:12:15.035Z,17.00
2023-02-06T19:14:43.368Z,25.05
2023-02-06T19:17:11.818Z,15.25
2023-02-06T19:19:40.444Z,18.08
2023-02-06T19:22:08.605Z,19.58
2023-02-06T19:24:37.947Z,18.80
2023-02-06T19:27:06.320Z,18.33
2023-02-06T19:29:36.753Z,21.08
2023-02-06T19:32:06.082Z,27.23
2023-02-06T19:34:36.531Z,24.42
2023-02-06T19:37:05.274Z,22.20
2023-02-06T19:39:34.468Z,16.60
2023-02-06T19:42:04.594Z,19.02
2023-02-06T19:44:36.476Z,17.42
2023-02-06T19:47:05.358Z,30.17
2023-02-06T19:49:34.135Z,19.83
2023-02-06T19:52:02.810Z,17.27
2023-02-06T19:54:31.655Z,20.95
2023-02-06T19:57:01.297Z,16.33
2023-02-06T19:59:30.855Z,17.63
2023-02-06T20:02:02.477Z,19.90
2023-02-06T20:04:32.412Z,22.90
2023-02-06T20:07:01.151Z,24.80
2023-02-06T20:09:30.475Z,25.42
2023-02-06T20:11:59.055Z,20.05
2023-02-06T20:14:28.023Z,21.35
2023-02-06T20:16:56.379Z,12.15
2023-02-06T20:19:28.285Z,20.48
2023-02-06T20:21:58.746Z,17.80
2023-02-06T20:24:30.196Z,18.90
2023-02-06T20:27:00.887Z,15.45
2023-02-06T20:29:31.568Z,16.35
2023-02-06T20:32:00.301Z,19.02
2023-02-06T20:34:30.194Z,12.93
2023-02-06T20:36:59.316Z,13.57
2023-02-06T20:39:28.792Z,17.50
2023-02-06T20:41:57.406Z,20.30
2023-02-06T20:44:26.394Z,14.02
2023-02-06T20:46:54.937Z,22.50
2023-02-06T20:49:25.273Z,15.93
2023-02-06T20:51:55.176Z,16.75
2023-02-06T20:54:23.946Z,25.10
2023-02-06T20:56:52.652Z,27.30
2023-02-06T20:59:21.807Z,19.20
2023-02-06T21:01:50.102Z,21.52
2023-02-06T21:04:19.423Z,17.60
2023-02-06T21:06:50.113Z,19.48
2023-02-06T21:09:20.038Z,23.52
2023-02-06T21:11:50.255Z,25.50
2023-02-06T21:14:18.866Z,19.88
2023-02-06T21:16:47.772Z,16.48
2023-02-06T21:19:18.730Z,19.35
2023-02-06T21:21:47.763Z,19.67
2023-02-06T21:24:16.521Z,20.58
2023-02-06T21:26:46.150Z,21.40
2023-02-06T21:29:15.837Z,20.80
2023-02-06T21:31:44.582Z,14.32
2023-02-06T21:34:17.205Z,21.10
2023-02-06T21:36:45.846Z,20.90
2023-02-06T21:39:18.633Z,24.08
2023-02-06T21:41:51.819Z,19.88
2023-02-06T21:44:20.186Z,16.40
2023-02-06T21:46:48.389Z,21.80
2023-02-06T21:49:16.992Z,17.58
2023-02-06T21:51:45.577Z,19.05
2023-02-06T21:54:13.891Z,25.90
2023-02-06T21:56:42.336Z,26.05
2023-02-06T21:59:13.612Z,25.70
2023-02-06T22:01:41.907Z,34.45
2023-02-06T22:04:11.885Z,30.42
2023-02-06T22:06:40.417Z,31.60
2023-02-06T22:09:10.313Z,27.65
2023-02-06T22:11:40.803Z,34.33
2023-02-06T22:14:11.691Z,22.42
2023-02-06T22:16:40.062Z,26.52
2023-02-06T22:19:08.942Z,19.52
2023-02-06T22:21:37.461Z,25.98
2023-02-06T22:24:07.680Z,24.85
2023-02-06T22:26:38.898Z,26.02
2023-02-06T22:29:08.364Z,21.65
2023-02-06T22:31:40.390Z,22.92
2023-02-06T22:34:11.904Z,23.30
2023-02-06T22:36:41.671Z,21.63
2023-02-06T22:39:12.623Z,16.10
2023-02-06T22:41:41.722Z,22.75
2023-02-06T22:44:11.642Z,25.73
2023-02-06T22:46:41.497Z,26.92
2023-02-06T22:49:10.773Z,22.90
2023-02-06T22:51:40.046Z,24.50
2023-02-06T22:54:09.921Z,28.85
2023-02-06T22:56:39.720Z,33.90
2023-02-06T22:59:10.375Z,34.10
2023-02-06T23:01:42.113Z,31.33
2023-02-06T23:04:14.012Z,28.77
2023-02-06T23:06:42.977Z,25.33
2023-02-06T23:09:14.823Z,27.30
2023-02-06T23:11:43.642Z,23.83
2023-02-06T23:14:13.307Z,23.77
2023-02-06T23:16:43.148Z,25.40
2023-02-06T23:19:13.401Z,23.88
2023-02-06T23:21:43.604Z,17.75
2023-02-06T23:24:12.971Z,30.00
2023-02-06T23:26:43.583Z,20.75
2023-02-06T23:29:15.789Z,23.00
2023-02-06T23:31:45.825Z,18.05
2023-02-06T23:34:14.504Z,22.25
2023-02-06T23:36:42.824Z,35.95
2023-02-06T23:39:12.025Z,27.70
2023-02-06T23:41:40.269Z,21.40
2023-02-06T23:44:09.548Z,21.13
2023-02-06T23:46:39.219Z,17.05
2023-02-06T23:49:09.446Z,20.17
2023-02-06T23:51:39.004Z,20.95
2023-02-06T23:54:07.989Z,25.15
2023-02-06T23:56:36.752Z,18.05
2023-02-06T23:59:06.936Z,29.33
